Terminal Aerodrome Forecast
Issued by NWS Jacksonville, FL

Home | Current Version | Previous Version | Text Only | Print | Product List | Glossary On
Versions: 1 2 3 4 5 6 7 8 9 10 11 12 13 14 15 16 17 18 19 20 21 22 23 24 25
000
FTUS42 KJAX 231700
TAFGNV
TAF
KGNV 231721Z 2318/2418 26006KT P6SM VCTS SCT030CB
     FM232000 24007KT P6SM VCTS BKN040CB
     FM240200 24004KT P6SM SCT250
      TEMPO 2408/2412 4SM BR
     FM241400 25006KT P6SM SCT020 SCT250=

USA.gov is the U.S. government's official web portal to all federal, state and local government web resources and services.